Time;durP1;ratioP1;P1;durP2;ratioP2;P2;SDS_P1;SDS_P2;PMS_P1;PMS_P2;Temp;Humidity;BMP_temperature;BMP_pressure;BME280_temperature;BME280_humidity;BME280_pressure;Samples;Min_cycle;Max_cycle;Signal;HPM_P1;HPM_P2
2022/01/02 00:01:01;;;;;;;3.78;1.98;;;12.00;93.50;;;;;;2094281;28;20114;-89
2022/01/02 00:02:03;;;;;;;3.28;1.70;;;12.00;93.50;;;;;;2099581;28;20119;-89
2022/01/02 00:03:06;;;;;;;3.90;1.60;;;12.00;93.50;;;;;;2098432;28;20043;-90
2022/01/02 00:04:07;;;;;;;3.45;1.70;;;12.00;93.50;;;;;;2090745;28;20033;-90
2022/01/02 00:05:11;;;;;;;4.03;1.80;;;12.00;93.60;;;;;;2082571;28;20428;-90
2022/01/02 00:06:16;;;;;;;3.15;1.65;;;12.00;93.60;;;;;;2096337;28;20107;-89
2022/01/02 00:07:19;;;;;;;3.30;1.65;;;12.00;93.60;;;;;;2115837;27;20046;-89
2022/01/02 00:08:20;;;;;;;4.10;1.73;;;12.00;93.60;;;;;;2106701;28;20119;-89
2022/01/02 00:09:39;;;;;;;3.80;1.83;;;12.00;93.60;;;;;;2082553;28;20420;-89
2022/01/02 00:10:56;;;;;;;2.88;1.60;;;12.00;93.60;;;;;;2077901;28;20104;-90
2022/01/02 00:12:02;;;;;;;3.50;1.83;;;12.00;93.60;;;;;;2100821;28;20033;-90
2022/01/02 00:13:04;;;;;;;3.50;1.60;;;12.00;93.60;;;;;;2098340;28;20047;-90
2022/01/02 00:14:08;;;;;;;2.88;1.70;;;11.90;93.50;;;;;;2092531;28;20029;-90
2022/01/02 00:15:11;;;;;;;3.15;1.60;;;11.90;93.60;;;;;;2090671;28;20033;-90
2022/01/02 00:16:16;;;;;;;3.40;1.45;;;11.90;93.60;;;;;;2097930;28;20044;-88
2022/01/02 00:17:21;;;;;;;4.15;1.83;;;11.90;93.60;;;;;;2106586;28;20044;-90
2022/01/02 00:18:26;;;;;;;3.00;1.80;;;11.90;93.60;;;;;;2098525;28;20037;-91
2022/01/02 00:19:30;;;;;;;3.42;1.90;;;11.90;93.60;;;;;;2099185;28;20113;-90
2022/01/02 00:20:36;;;;;;;3.80;2.10;;;11.90;93.60;;;;;;2088289;28;20083;-90
2022/01/02 00:21:42;;;;;;;3.10;1.60;;;11.90;93.90;;;;;;2073709;28;20097;-91
2022/01/02 00:22:49;;;;;;;2.55;1.67;;;11.90;93.60;;;;;;2090776;28;20033;-90
2022/01/02 00:24:00;;;;;;;3.85;1.88;;;11.90;93.60;;;;;;2088241;28;20515;-90
2022/01/02 00:25:05;;;;;;;3.08;1.63;;;11.90;93.60;;;;;;2092346;28;20491;-91
2022/01/02 00:26:06;;;;;;;3.85;1.80;;;11.90;93.60;;;;;;2091706;28;20086;-91
2022/01/02 00:27:09;;;;;;;3.92;2.00;;;11.90;93.60;;;;;;2100083;28;20422;-90
2022/01/02 00:28:15;;;;;;;2.85;1.63;;;11.90;93.60;;;;;;2101059;28;20052;-91
2022/01/02 00:29:15;;;;;;;3.13;1.80;;;11.80;93.60;;;;;;2101192;28;20040;-90
2022/01/02 00:30:17;;;;;;;3.85;1.80;;;11.90;93.60;;;;;;2087856;28;20065;-91
2022/01/02 00:31:17;;;;;;;3.60;1.85;;;11.80;93.60;;;;;;2098982;28;20033;-90
2022/01/02 00:32:20;;;;;;;4.68;1.98;;;11.90;93.60;;;;;;2090671;28;20071;-91
2022/01/02 00:33:20;;;;;;;3.55;2.00;;;11.80;93.50;;;;;;2098824;28;20046;-91
2022/01/02 00:34:22;;;;;;;3.60;1.73;;;11.90;93.50;;;;;;2107132;28;20032;-91
2022/01/02 00:35:23;;;;;;;5.47;1.92;;;11.90;93.60;;;;;;2098715;28;20033;-90
2022/01/02 00:36:23;;;;;;;4.28;1.70;;;11.90;93.60;;;;;;2100061;28;20029;-91
2022/01/02 00:37:25;;;;;;;4.82;1.80;;;11.90;93.60;;;;;;2099225;28;20462;-90
2022/01/02 00:38:25;;;;;;;4.05;1.70;;;11.90;93.60;;;;;;2082423;28;20040;-91
2022/01/02 00:39:26;;;;;;;3.97;1.95;;;11.90;93.60;;;;;;2090421;28;20052;-90
2022/01/02 00:40:27;;;;;;;3.30;1.80;;;11.90;93.60;;;;;;2092762;28;20041;-90
2022/01/02 00:41:43;;;;;;;2.95;1.80;;;11.90;93.50;;;;;;2076410;28;20030;-91
2022/01/02 00:42:44;;;;;;;3.95;2.10;;;11.90;93.50;;;;;;2083963;28;20045;-89
2022/01/02 00:43:57;;;;;;;3.95;2.20;;;11.90;93.50;;;;;;2093241;28;20041;-89
2022/01/02 00:45:03;;;;;;;4.60;2.15;;;11.90;93.50;;;;;;2091630;28;20041;-90
2022/01/02 00:46:05;;;;;;;5.78;1.95;;;11.90;93.50;;;;;;2098083;28;20040;-88
2022/01/02 00:47:08;;;;;;;4.07;2.08;;;11.90;93.50;;;;;;2097453;28;20043;-90
2022/01/02 00:48:15;;;;;;;3.63;1.80;;;11.90;93.50;;;;;;2098379;28;20047;-90
2022/01/02 00:49:19;;;;;;;4.35;2.15;;;11.90;93.50;;;;;;2095227;28;20029;-89
2022/01/02 00:50:30;;;;;;;3.80;1.88;;;11.90;93.50;;;;;;2089816;28;20407;-90
2022/01/02 00:51:46;;;;;;;4.15;1.85;;;11.90;93.50;;;;;;2091874;28;20557;-90
2022/01/02 00:52:49;;;;;;;3.50;1.92;;;11.90;93.50;;;;;;2099776;28;20032;-90
2022/01/02 00:53:52;;;;;;;2.95;1.67;;;11.90;93.50;;;;;;2095626;28;20372;-90
2022/01/02 00:54:55;;;;;;;4.40;2.15;;;11.90;93.50;;;;;;2098145;28;20032;-89
2022/01/02 00:55:57;;;;;;;4.18;1.85;;;11.80;93.50;;;;;;2097553;28;20564;-90
2022/01/02 00:57:04;;;;;;;3.90;2.00;;;11.80;93.50;;;;;;2090014;28;20136;-89
2022/01/02 00:58:11;;;;;;;3.20;1.80;;;11.80;93.50;;;;;;2095816;28;20029;-91
2022/01/02 00:59:27;;;;;;;3.95;1.88;;;11.80;93.50;;;;;;2102857;28;20032;-90
2022/01/02 01:00:29;;;;;;;3.70;1.75;;;11.80;93.50;;;;;;2092002;28;20128;-89
2022/01/02 01:01:34;;;;;;;3.78;1.92;;;11.80;93.60;;;;;;2082308;28;20399;-90
2022/01/02 01:02:48;;;;;;;5.20;2.00;;;11.80;93.60;;;;;;2087915;28;20033;-89
2022/01/02 01:03:52;;;;;;;4.63;2.08;;;11.80;93.60;;;;;;2090670;28;20032;-89
2022/01/02 01:04:55;;;;;;;3.80;1.77;;;11.80;93.60;;;;;;2097491;28;20584;-89
2022/01/02 01:05:59;;;;;;;2.80;1.77;;;11.80;93.60;;;;;;2098155;28;20384;-89
2022/01/02 01:07:05;;;;;;;3.15;1.70;;;11.80;93.60;;;;;;2098140;28;20505;-90
2022/01/02 01:08:07;;;;;;;3.83;1.88;;;11.70;93.60;;;;;;2090070;28;20430;-88
2022/01/02 01:09:08;;;;;;;4.95;2.10;;;11.70;93.60;;;;;;2096027;28;20029;-88
2022/01/02 01:10:11;;;;;;;4.50;1.90;;;11.70;93.60;;;;;;2094088;28;20063;-86
2022/01/02 01:11:12;;;;;;;4.40;2.05;;;11.70;93.60;;;;;;2101268;28;20409;-86
2022/01/02 01:12:12;;;;;;;3.22;1.90;;;11.70;93.70;;;;;;2117552;28;20040;-87
2022/01/02 01:13:13;;;;;;;3.85;1.67;;;11.70;93.70;;;;;;2103170;28;20124;-87
2022/01/02 01:14:14;;;;;;;4.55;1.83;;;11.70;93.70;;;;;;2100732;28;20036;-86
2022/01/02 01:15:15;;;;;;;4.53;2.00;;;11.70;93.70;;;;;;2101544;28;20025;-87
2022/01/02 01:16:18;;;;;;;4.82;2.20;;;11.70;93.80;;;;;;2099917;28;20562;-88
2022/01/02 01:17:18;;;;;;;3.50;1.80;;;11.70;93.80;;;;;;2091040;28;20090;-88
2022/01/02 01:18:19;;;;;;;3.95;1.80;;;11.60;93.80;;;;;;2097853;28;20583;-90
2022/01/02 01:19:22;;;;;;;4.22;2.17;;;11.60;93.80;;;;;;2089747;28;20080;-90
2022/01/02 01:20:26;;;;;;;3.72;1.75;;;11.70;93.90;;;;;;2097923;28;20131;-90
2022/01/02 01:21:27;;;;;;;3.50;1.98;;;11.60;93.90;;;;;;2095611;28;20075;-90
2022/01/02 01:22:28;;;;;;;3.63;1.80;;;11.60;94.00;;;;;;2081814;28;20554;-90
2022/01/02 01:23:28;;;;;;;4.20;2.00;;;11.60;94.00;;;;;;2088702;28;20068;-90
2022/01/02 01:24:30;;;;;;;3.63;1.80;;;11.50;94.00;;;;;;2089533;28;20045;-91
2022/01/02 01:25:31;;;;;;;3.83;2.00;;;11.50;94.00;;;;;;2086611;28;20032;-89
2022/01/02 01:26:32;;;;;;;3.22;1.95;;;11.50;94.10;;;;;;2086713;28;20041;-90
2022/01/02 01:27:33;;;;;;;4.55;2.25;;;11.50;94.10;;;;;;2073408;28;20088;-90
2022/01/02 01:28:33;;;;;;;6.85;2.40;;;11.50;94.10;;;;;;2071859;28;20057;-90
2022/01/02 01:29:35;;;;;;;4.75;2.10;;;11.50;94.10;;;;;;2081645;28;20033;-91
2022/01/02 01:30:36;;;;;;;4.13;1.70;;;11.50;94.20;;;;;;2089588;28;20025;-90
2022/01/02 01:31:37;;;;;;;3.88;1.90;;;11.50;94.20;;;;;;2073062;28;20852;-89
2022/01/02 01:32:38;;;;;;;4.28;1.83;;;11.50;94.20;;;;;;2089761;28;20539;-90
2022/01/02 01:33:38;;;;;;;4.32;2.25;;;11.50;94.50;;;;;;2087195;28;20037;-90
2022/01/02 01:34:39;;;;;;;5.60;1.95;;;11.40;94.20;;;;;;2081546;28;20025;-90
2022/01/02 01:35:40;;;;;;;5.00;2.00;;;11.40;94.30;;;;;;2065047;28;20516;-90
2022/01/02 01:36:40;;;;;;;3.95;2.10;;;11.40;94.30;;;;;;2073140;28;20041;-90
2022/01/02 01:37:42;;;;;;;4.40;1.90;;;11.40;94.30;;;;;;2089693;28;20036;-90
2022/01/02 01:38:42;;;;;;;3.83;1.92;;;11.40;94.30;;;;;;2082395;28;20046;-90
2022/01/02 01:39:43;;;;;;;3.83;1.80;;;11.40;94.40;;;;;;2089665;28;20040;-90
2022/01/02 01:40:52;;;;;;;4.20;2.03;;;11.40;94.40;;;;;;2097932;28;20120;-90
2022/01/02 01:41:54;;;;;;;4.68;1.83;;;11.40;94.40;;;;;;2090628;28;20120;-90
2022/01/02 01:42:58;;;;;;;3.92;2.08;;;11.30;94.40;;;;;;2080211;28;20515;-90
2022/01/02 01:44:08;;;;;;;4.07;1.90;;;11.40;94.50;;;;;;2081998;28;20037;-90
2022/01/02 01:46:19;;;;;;;5.68;2.20;;;11.30;94.50;;;;;;2094489;28;20024;-89
2022/01/02 01:47:20;;;;;;;5.28;2.10;;;11.30;94.50;;;;;;2090025;28;20066;-90
2022/01/02 01:48:20;;;;;;;4.10;1.90;;;11.30;94.50;;;;;;2079975;28;20033;-90
2022/01/02 01:49:27;;;;;;;4.35;1.92;;;11.30;94.60;;;;;;2085423;28;20112;-89
2022/01/02 01:50:39;;;;;;;4.80;2.08;;;11.30;94.60;;;;;;2097660;28;20107;-89
2022/01/02 01:51:40;;;;;;;4.20;2.10;;;11.30;94.60;;;;;;2095974;28;20040;-89
2022/01/02 01:52:41;;;;;;;4.13;1.95;;;11.30;94.70;;;;;;2089498;28;20067;-89
2022/01/02 01:53:42;;;;;;;4.72;2.20;;;11.30;94.60;;;;;;2089672;28;20419;-90
2022/01/02 01:54:42;;;;;;;4.32;2.00;;;11.30;94.60;;;;;;2081304;28;20038;-90
2022/01/02 01:55:43;;;;;;;3.67;1.80;;;11.30;94.70;;;;;;2081363;28;20124;-90
2022/01/02 01:56:46;;;;;;;4.47;1.90;;;11.30;94.70;;;;;;2105777;28;20032;-90
2022/01/02 01:57:47;;;;;;;3.90;1.90;;;11.30;94.70;;;;;;2097913;28;20051;-90
2022/01/02 01:58:48;;;;;;;3.90;1.80;;;11.30;94.70;;;;;;2089475;28;20056;-90
2022/01/02 01:59:48;;;;;;;4.70;2.10;;;11.30;94.70;;;;;;2099183;28;20059;-90
2022/01/02 02:00:49;;;;;;;3.30;1.75;;;11.30;94.80;;;;;;2089908;28;20486;-89
2022/01/02 02:01:50;;;;;;;4.75;1.95;;;11.30;94.80;;;;;;2106802;28;20036;-84
2022/01/02 02:02:51;;;;;;;5.05;2.17;;;11.30;94.80;;;;;;2096593;28;20037;-90
2022/01/02 02:03:52;;;;;;;4.53;2.10;;;11.30;94.80;;;;;;2089640;28;20040;-90
2022/01/02 02:04:53;;;;;;;3.30;1.95;;;11.30;94.80;;;;;;2097650;28;20052;-89
2022/01/02 02:05:53;;;;;;;3.88;1.77;;;11.30;94.80;;;;;;2080296;28;20377;-89
2022/01/02 02:06:56;;;;;;;4.28;2.08;;;11.30;94.80;;;;;;2064485;28;20039;-89
2022/01/02 02:07:57;;;;;;;4.10;2.00;;;11.30;94.90;;;;;;2081780;28;20045;-89
2022/01/02 02:08:59;;;;;;;3.67;1.90;;;11.30;94.90;;;;;;2097911;28;20056;-89
2022/01/02 02:10:12;;;;;;;5.03;2.03;;;11.30;94.90;;;;;;2094345;28;20032;-89
2022/01/02 02:11:14;;;;;;;4.45;1.90;;;11.30;94.90;;;;;;2097514;28;20036;-89
2022/01/02 02:12:14;;;;;;;6.00;2.28;;;11.30;94.90;;;;;;2096631;28;20479;-90
2022/01/02 02:13:15;;;;;;;4.82;1.95;;;11.30;94.90;;;;;;2097565;28;20044;-89
2022/01/02 02:14:16;;;;;;;4.40;1.88;;;11.30;94.90;;;;;;2098198;28;20453;-89
2022/01/02 02:15:18;;;;;;;5.95;2.10;;;11.30;95.00;;;;;;2089485;28;20048;-89
2022/01/02 02:16:19;;;;;;;3.60;2.13;;;11.30;95.00;;;;;;2072349;28;20388;-89
2022/01/02 02:17:19;;;;;;;4.65;2.10;;;11.30;95.00;;;;;;2080533;28;20034;-89
2022/01/02 02:18:20;;;;;;;4.55;2.20;;;11.30;95.00;;;;;;2097794;28;20449;-89
2022/01/02 02:19:20;;;;;;;3.40;1.70;;;11.30;95.00;;;;;;2096774;28;20407;-89
2022/01/02 02:20:26;;;;;;;4.13;1.90;;;11.30;95.00;;;;;;2089002;28;20041;-90
2022/01/02 02:21:35;;;;;;;3.75;1.80;;;11.30;95.00;;;;;;2096915;28;20078;-89
2022/01/02 02:22:41;;;;;;;7.05;2.20;;;11.30;95.00;;;;;;2097731;28;20566;-88
2022/01/02 02:23:44;;;;;;;5.50;2.17;;;11.30;95.00;;;;;;2098053;28;20041;-89
2022/01/02 02:24:45;;;;;;;3.78;1.80;;;11.30;95.00;;;;;;2097653;28;20529;-89
2022/01/02 02:25:46;;;;;;;4.60;1.98;;;11.30;95.00;;;;;;2097422;28;20139;-89
2022/01/02 02:26:48;;;;;;;5.00;2.30;;;11.30;95.00;;;;;;2097150;28;20032;-89
2022/01/02 02:28:00;;;;;;;3.65;1.95;;;11.30;95.10;;;;;;2099138;28;20037;-89
2022/01/02 02:29:02;;;;;;;4.65;1.92;;;11.30;95.10;;;;;;2097642;28;20398;-89
2022/01/02 02:30:05;;;;;;;3.65;1.90;;;11.30;95.10;;;;;;2098068;28;20495;-90
2022/01/02 02:31:05;;;;;;;5.68;1.95;;;11.30;95.10;;;;;;2097867;28;20043;-89
2022/01/02 02:32:06;;;;;;;4.68;1.98;;;11.30;95.10;;;;;;2079752;28;20483;-90
2022/01/02 02:33:08;;;;;;;3.80;1.77;;;11.30;95.10;;;;;;2064709;28;20050;-89
2022/01/02 02:34:09;;;;;;;5.10;2.08;;;11.30;95.10;;;;;;2073072;28;20040;-89
2022/01/02 02:35:10;;;;;;;4.53;1.65;;;11.40;95.10;;;;;;2072482;28;20033;-89
2022/01/02 02:36:12;;;;;;;4.30;2.00;;;11.40;95.10;;;;;;2068717;28;20031;-90
2022/01/02 02:37:12;;;;;;;4.40;1.80;;;11.40;95.20;;;;;;2079724;28;20025;-88
2022/01/02 02:38:15;;;;;;;5.72;1.98;;;11.40;95.20;;;;;;2098122;28;20032;-88
2022/01/02 02:39:16;;;;;;;4.85;1.92;;;11.40;95.20;;;;;;2097771;28;20036;-87
2022/01/02 02:40:19;;;;;;;4.55;2.05;;;11.40;95.20;;;;;;2079850;28;20042;-89
2022/01/02 02:41:19;;;;;;;4.72;1.90;;;11.40;95.20;;;;;;2080429;28;20029;-90
2022/01/02 02:42:34;;;;;;;4.45;2.15;;;11.40;95.20;;;;;;2088573;28;20044;-88
2022/01/02 02:44:01;;;;;;;5.43;2.00;;;11.40;95.20;;;;;;2088615;28;20144;-89
2022/01/02 02:48:57;;;;;;;5.55;2.10;;;11.40;95.20;;;;;;2093282;28;20049;-88
2022/01/02 02:49:06;;;;;;;4.10;2.10;;;11.40;95.10;;;;;;2083373;28;20055;-89
2022/01/02 02:50:07;;;;;;;3.38;1.63;;;11.40;95.10;;;;;;2082407;28;20057;-88
2022/01/02 02:51:13;;;;;;;4.05;1.73;;;11.40;95.10;;;;;;2079341;28;20099;-89
2022/01/02 02:52:41;;;;;;;3.50;1.75;;;11.40;95.20;;;;;;2075149;28;20087;-89
2022/01/02 02:53:36;;;;;;;;;;;11.40;95.20;;;;;;2090883;28;20032;-86
2022/01/02 02:54:37;;;;;;;2.80;1.42;;;11.40;95.10;;;;;;2077072;28;19932;-86
2022/01/02 02:55:43;;;;;;;4.57;1.75;;;11.40;95.10;;;;;;2077289;28;20042;-86
2022/01/02 02:56:57;;;;;;;3.42;1.65;;;11.50;95.20;;;;;;2088099;28;20037;-86
2022/01/02 02:58:09;;;;;;;3.83;1.60;;;11.40;95.10;;;;;;2085976;28;20560;-86
2022/01/02 02:59:11;;;;;;;3.90;1.90;;;11.50;95.20;;;;;;2079497;28;20026;-86
2022/01/02 03:00:12;;;;;;;4.30;1.80;;;11.40;95.20;;;;;;2091593;28;20565;-88
2022/01/02 03:01:15;;;;;;;4.65;1.67;;;11.50;95.20;;;;;;2089282;28;20048;-89
2022/01/02 03:02:16;;;;;;;3.63;1.70;;;11.50;95.20;;;;;;2088184;28;20471;-88
2022/01/02 03:03:16;;;;;;;4.85;1.75;;;11.50;95.20;;;;;;2086887;28;20083;-88
2022/01/02 03:04:18;;;;;;;4.15;1.80;;;11.50;95.20;;;;;;2071538;28;20092;-88
2022/01/02 03:05:18;;;;;;;3.13;1.52;;;11.50;95.20;;;;;;2081158;28;20472;-89
2022/01/02 03:06:19;;;;;;;3.58;1.42;;;11.50;95.20;;;;;;2080784;28;20038;-88
2022/01/02 03:07:20;;;;;;;4.10;1.80;;;11.50;95.20;;;;;;2067297;28;20062;-89
2022/01/02 03:08:21;;;;;;;4.68;1.88;;;11.50;95.20;;;;;;2080811;28;20072;-89
2022/01/02 03:09:46;;;;;;;3.97;1.70;;;11.50;95.20;;;;;;2081588;28;20538;-88
2022/01/02 03:10:46;;;;;;;3.80;1.73;;;11.60;95.30;;;;;;2082917;28;20065;-89
2022/01/02 03:11:47;;;;;;;4.70;1.70;;;11.60;95.30;;;;;;2091184;28;20047;-89
2022/01/02 03:12:48;;;;;;;4.70;1.60;;;11.60;95.30;;;;;;2083735;28;20522;-89
2022/01/02 03:13:52;;;;;;;3.67;1.55;;;11.60;95.30;;;;;;2072352;28;20037;-89
2022/01/02 03:14:53;;;;;;;5.75;1.58;;;11.60;95.30;;;;;;2073185;28;20034;-88
2022/01/02 03:15:53;;;;;;;4.93;1.75;;;11.60;95.30;;;;;;2077404;28;20401;-88
2022/01/02 03:16:54;;;;;;;4.15;1.50;;;11.60;95.30;;;;;;2082296;28;20040;-89
2022/01/02 03:17:55;;;;;;;4.00;1.85;;;11.60;95.30;;;;;;2089987;28;20097;-89
2022/01/02 03:18:55;;;;;;;4.10;1.60;;;11.60;95.30;;;;;;2074001;28;20413;-88
2022/01/02 03:19:56;;;;;;;4.35;1.77;;;11.60;95.30;;;;;;2081966;28;20491;-88
2022/01/02 03:20:57;;;;;;;4.32;1.75;;;11.60;95.30;;;;;;2090457;28;20055;-89
2022/01/02 03:21:58;;;;;;;3.20;1.40;;;11.70;95.30;;;;;;2098911;28;20474;-89
2022/01/02 03:22:59;;;;;;;3.95;1.60;;;11.70;95.30;;;;;;2098762;28;20045;-89
2022/01/02 03:23:59;;;;;;;3.97;1.70;;;11.60;95.30;;;;;;2098986;28;20103;-89
2022/01/02 03:25:00;;;;;;;7.40;1.70;;;11.70;95.30;;;;;;2090298;28;20483;-89
2022/01/02 03:26:01;;;;;;;4.57;1.52;;;11.70;95.40;;;;;;2090325;28;20139;-89
2022/01/02 03:27:01;;;;;;;4.70;1.80;;;11.60;95.30;;;;;;2096069;28;20402;-89
2022/01/02 03:28:02;;;;;;;4.32;1.80;;;11.70;95.40;;;;;;2089286;28;20034;-89
2022/01/02 03:29:03;;;;;;;3.33;1.77;;;11.60;95.30;;;;;;2089018;28;20040;-89
2022/01/02 03:30:04;;;;;;;4.97;1.63;;;11.70;95.40;;;;;;2098335;28;20037;-88
2022/01/02 03:31:05;;;;;;;4.50;1.85;;;11.70;95.30;;;;;;2090818;28;20067;-88
2022/01/02 03:32:06;;;;;;;4.00;1.70;;;11.70;95.40;;;;;;2091754;28;20132;-89
2022/01/02 03:33:07;;;;;;;4.18;1.60;;;11.70;95.30;;;;;;2091946;28;20072;-89
2022/01/02 03:34:08;;;;;;;4.50;1.80;;;11.70;95.30;;;;;;2092166;28;20400;-88
2022/01/02 03:35:08;;;;;;;5.47;1.80;;;11.70;95.30;;;;;;2093112;28;20217;-90
2022/01/02 03:36:09;;;;;;;3.42;1.60;;;11.70;95.30;;;;;;2083885;28;20045;-89
2022/01/02 03:37:09;;;;;;;5.43;1.77;;;11.70;95.60;;;;;;2082616;28;20044;-89
2022/01/02 03:38:10;;;;;;;5.22;1.90;;;11.70;95.30;;;;;;2089890;28;20041;-89
2022/01/02 03:39:11;;;;;;;4.15;1.75;;;11.80;95.60;;;;;;2089041;28;20160;-89
2022/01/02 03:40:12;;;;;;;4.95;1.65;;;11.80;95.30;;;;;;2081388;28;20071;-89
2022/01/02 03:41:13;;;;;;;4.85;1.80;;;11.80;95.30;;;;;;2081583;28;20073;-89
2022/01/02 03:42:14;;;;;;;4.43;1.60;;;11.80;95.30;;;;;;2097974;28;20092;-89
2022/01/02 03:43:15;;;;;;;8.82;2.00;;;11.80;95.30;;;;;;2098912;28;20067;-89
2022/01/02 03:44:15;;;;;;;4.68;1.90;;;11.80;95.30;;;;;;2098283;28;20543;-89
2022/01/02 03:45:16;;;;;;;6.45;1.70;;;11.80;95.30;;;;;;2098311;28;20486;-88
2022/01/02 03:46:16;;;;;;;5.97;2.10;;;11.80;95.30;;;;;;2081803;28;20030;-89
2022/01/02 03:47:17;;;;;;;4.68;1.70;;;11.90;95.30;;;;;;2078765;28;20038;-88
2022/01/02 03:48:18;;;;;;;3.25;1.60;;;11.90;95.30;;;;;;2081821;28;20036;-89
2022/01/02 03:49:19;;;;;;;4.20;1.65;;;11.90;95.20;;;;;;2098264;28;20055;-89
2022/01/02 03:50:20;;;;;;;5.95;1.80;;;11.90;95.20;;;;;;2098548;28;20037;-88
2022/01/02 03:51:21;;;;;;;5.13;1.65;;;11.90;95.50;;;;;;2090202;28;20033;-89
2022/01/02 03:52:21;;;;;;;6.45;1.80;;;11.90;95.20;;;;;;2089748;28;20033;-89
2022/01/02 03:53:22;;;;;;;3.15;1.42;;;11.90;95.20;;;;;;2089467;28;20041;-89
2022/01/02 03:54:23;;;;;;;4.47;1.73;;;11.90;95.20;;;;;;2073789;28;20057;-89
2022/01/02 03:55:23;;;;;;;4.13;1.63;;;11.90;95.20;;;;;;2073718;28;20045;-89
2022/01/02 03:56:24;;;;;;;4.93;1.70;;;11.90;95.20;;;;;;2098466;28;20043;-89
2022/01/02 03:57:25;;;;;;;4.10;1.50;;;11.90;95.20;;;;;;2101200;28;20097;-89
2022/01/02 03:58:25;;;;;;;5.43;1.80;;;11.90;95.20;;;;;;2098437;28;20492;-89
2022/01/02 03:59:26;;;;;;;7.05;1.70;;;11.90;95.20;;;;;;2094459;28;20037;-89
2022/01/02 04:00:27;;;;;;;5.47;1.85;;;11.90;95.20;;;;;;2099063;28;20029;-89
2022/01/02 04:01:28;;;;;;;4.75;1.55;;;11.90;95.20;;;;;;2097431;28;20419;-90
2022/01/02 04:02:29;;;;;;;4.57;1.75;;;12.00;95.20;;;;;;2089634;28;20048;-90
2022/01/02 04:03:29;;;;;;;3.95;1.67;;;12.00;95.40;;;;;;2081825;28;20077;-90
2022/01/02 04:04:30;;;;;;;4.85;1.80;;;12.00;95.20;;;;;;2088056;28;20029;-90
2022/01/02 04:05:31;;;;;;;6.70;1.70;;;12.00;95.20;;;;;;2089704;28;20043;-90
2022/01/02 04:06:31;;;;;;;3.70;1.60;;;12.00;95.40;;;;;;2105990;28;20551;-90
2022/01/02 04:07:32;;;;;;;5.78;1.73;;;12.00;95.10;;;;;;2098619;28;20071;-90
2022/01/02 04:08:33;;;;;;;5.53;1.70;;;12.00;95.10;;;;;;2088904;28;20091;-89
2022/01/02 04:09:33;;;;;;;5.45;1.85;;;12.00;95.10;;;;;;2090003;28;20041;-89
2022/01/02 04:10:35;;;;;;;7.05;1.77;;;12.00;95.30;;;;;;2090274;28;20173;-89
2022/01/02 04:11:35;;;;;;;2.60;1.45;;;12.00;95.00;;;;;;2090847;28;20071;-89
2022/01/02 04:12:37;;;;;;;3.42;1.55;;;12.00;95.00;;;;;;2090033;28;20115;-89
2022/01/02 04:13:37;;;;;;;4.15;1.50;;;12.10;95.10;;;;;;2091718;28;20017;-90
2022/01/02 04:14:38;;;;;;;5.70;1.50;;;12.10;95.10;;;;;;2097834;28;20080;-89
2022/01/02 04:15:39;;;;;;;4.57;1.55;;;12.10;95.10;;;;;;2092151;28;20079;-85
2022/01/02 04:16:39;;;;;;;4.78;1.50;;;12.10;95.10;;;;;;2110724;28;20036;-90
2022/01/02 04:17:41;;;;;;;5.82;1.70;;;12.10;95.10;;;;;;2107297;28;20410;-88
2022/01/02 04:18:41;;;;;;;4.43;1.45;;;12.10;95.10;;;;;;2093755;28;20037;-90
2022/01/02 04:19:42;;;;;;;4.55;1.73;;;12.10;95.10;;;;;;2089955;28;20419;-89
2022/01/02 04:20:43;;;;;;;5.13;1.60;;;12.10;95.10;;;;;;2081422;28;20033;-90
2022/01/02 04:21:44;;;;;;;6.10;1.88;;;12.10;95.10;;;;;;2083856;28;20037;-89
2022/01/02 04:22:45;;;;;;;6.00;1.60;;;12.10;95.00;;;;;;2089532;28;20100;-90
2022/01/02 04:23:45;;;;;;;3.25;1.20;;;12.10;95.00;;;;;;2085193;28;20033;-90
2022/01/02 04:24:46;;;;;;;4.07;1.30;;;12.10;95.00;;;;;;2072888;28;20064;-90
2022/01/02 04:25:47;;;;;;;5.05;1.70;;;12.10;95.00;;;;;;2094027;28;20053;-89
2022/01/02 04:26:48;;;;;;;3.63;1.42;;;12.10;95.00;;;;;;2103363;28;20048;-90
2022/01/02 04:27:49;;;;;;;4.18;1.55;;;12.10;95.00;;;;;;2098383;28;20058;-90
2022/01/02 04:28:49;;;;;;;5.20;1.65;;;12.10;95.00;;;;;;2089963;28;20037;-89
2022/01/02 04:29:51;;;;;;;7.75;1.80;;;12.10;95.00;;;;;;2090243;28;20083;-90
2022/01/02 04:30:51;;;;;;;4.13;1.55;;;12.10;95.10;;;;;;2104808;28;20036;-90
2022/01/02 04:31:52;;;;;;;4.60;1.50;;;12.10;95.10;;;;;;2081783;28;20052;-89
2022/01/02 04:32:53;;;;;;;5.47;1.65;;;12.10;95.30;;;;;;2073810;28;20592;-90
2022/01/02 04:33:53;;;;;;;5.85;1.80;;;12.10;95.10;;;;;;2089820;28;20033;-89
2022/01/02 04:34:54;;;;;;;6.63;1.85;;;12.10;95.10;;;;;;2092661;28;20594;-89
2022/01/02 04:35:55;;;;;;;5.20;1.70;;;12.10;95.00;;;;;;2093106;28;20039;-89
2022/01/02 04:36:55;;;;;;;2.80;1.38;;;12.20;95.00;;;;;;2092347;28;20557;-86
2022/01/02 04:37:56;;;;;;;3.65;1.60;;;12.10;95.00;;;;;;2098675;28;20044;-87
2022/01/02 04:38:57;;;;;;;3.83;1.42;;;12.20;95.00;;;;;;2101367;28;20036;-87
2022/01/02 04:39:57;;;;;;;5.78;1.73;;;12.10;95.00;;;;;;2101362;28;20127;-86
2022/01/02 04:40:58;;;;;;;4.18;1.60;;;12.10;95.00;;;;;;2089542;28;20040;-87
2022/01/02 04:42:00;;;;;;;7.13;1.80;;;12.10;95.00;;;;;;2084498;28;20069;-87
2022/01/02 04:43:00;;;;;;;5.72;1.80;;;12.10;95.00;;;;;;2101076;28;20037;-87
2022/01/02 04:44:01;;;;;;;6.88;1.60;;;12.10;95.00;;;;;;2096670;28;20364;-89
2022/01/02 04:45:02;;;;;;;6.07;1.63;;;12.10;95.00;;;;;;2089054;28;20048;-89
2022/01/02 04:46:03;;;;;;;5.03;1.52;;;12.10;95.00;;;;;;2089684;28;20028;-90
2022/01/02 04:47:04;;;;;;;4.78;1.60;;;12.10;95.00;;;;;;2098337;28;20521;-90
2022/01/02 04:48:05;;;;;;;4.43;1.63;;;12.10;95.00;;;;;;2090139;28;20041;-89
2022/01/02 04:49:05;;;;;;;4.97;1.85;;;12.10;95.10;;;;;;2089023;28;20365;-89
2022/01/02 04:50:06;;;;;;;7.05;2.03;;;12.10;95.10;;;;;;2081974;28;20049;-89
2022/01/02 04:51:07;;;;;;;5.45;2.00;;;12.00;95.10;;;;;;2073439;28;20077;-89
2022/01/02 04:52:07;;;;;;;4.25;1.85;;;12.00;95.10;;;;;;2073027;28;20465;-90
2022/01/02 04:53:08;;;;;;;4.97;2.10;;;12.00;95.10;;;;;;2081587;28;20400;-90
2022/01/02 04:54:10;;;;;;;6.00;2.00;;;12.00;95.10;;;;;;2078426;28;22964;-89
2022/01/02 04:55:11;;;;;;;5.93;2.03;;;12.00;95.10;;;;;;2089792;28;20033;-90
2022/01/02 04:56:11;;;;;;;6.65;2.10;;;12.00;95.10;;;;;;2088081;28;20537;-89
2022/01/02 04:57:12;;;;;;;5.28;1.92;;;12.00;95.20;;;;;;2081135;28;20038;-89
2022/01/02 04:58:12;;;;;;;4.30;1.95;;;11.90;95.20;;;;;;2081561;28;20473;-90
2022/01/02 04:59:13;;;;;;;5.00;2.00;;;11.90;95.20;;;;;;2097867;28;20159;-89
2022/01/02 05:00:14;;;;;;;4.82;1.83;;;11.90;95.20;;;;;;2097681;28;20037;-90
2022/01/02 05:01:16;;;;;;;8.25;2.20;;;11.90;95.20;;;;;;2098125;28;20040;-89
2022/01/02 05:02:17;;;;;;;4.13;1.90;;;11.90;95.40;;;;;;2089458;28;20041;-90
2022/01/02 05:03:17;;;;;;;5.28;1.95;;;11.90;95.30;;;;;;2072669;28;20476;-90
2022/01/02 05:04:18;;;;;;;4.47;1.95;;;11.90;95.30;;;;;;2073559;28;20076;-90
2022/01/02 05:05:19;;;;;;;3.80;1.67;;;11.80;95.30;;;;;;2080764;28;20083;-90
2022/01/02 05:06:19;;;;;;;5.68;1.83;;;11.80;95.30;;;;;;2096194;28;20095;-89
2022/01/02 05:07:20;;;;;;;4.93;1.83;;;11.80;95.40;;;;;;2089376;28;20472;-90
2022/01/02 05:08:21;;;;;;;5.20;2.03;;;11.80;95.40;;;;;;2097844;28;20123;-89
2022/01/02 05:09:21;;;;;;;5.68;1.70;;;11.80;95.40;;;;;;2103581;28;20028;-89
2022/01/02 05:10:22;;;;;;;3.13;1.40;;;11.80;95.40;;;;;;2080909;28;20120;-89
2022/01/02 05:11:23;;;;;;;4.53;1.98;;;11.80;95.40;;;;;;2089498;28;20047;-89
2022/01/02 05:12:24;;;;;;;5.03;2.08;;;11.80;95.50;;;;;;2097534;28;20036;-89
2022/01/02 05:13:24;;;;;;;5.15;1.90;;;11.80;95.50;;;;;;2098001;28;20056;-90
2022/01/02 05:14:25;;;;;;;4.63;2.00;;;11.80;95.50;;;;;;2087319;28;20411;-90
2022/01/02 05:15:26;;;;;;;5.57;2.10;;;11.70;95.50;;;;;;2078520;28;20030;-90
2022/01/02 05:16:26;;;;;;;4.68;1.95;;;11.70;95.50;;;;;;2082026;28;20538;-90
2022/01/02 05:17:27;;;;;;;5.18;2.20;;;11.70;95.50;;;;;;2089719;28;20489;-89
2022/01/02 05:18:28;;;;;;;4.30;2.00;;;11.70;95.50;;;;;;2082196;28;20037;-89
2022/01/02 05:19:28;;;;;;;5.05;2.05;;;11.70;95.50;;;;;;2088952;28;20033;-89
2022/01/02 05:20:29;;;;;;;5.45;2.22;;;11.70;95.50;;;;;;2081351;28;20034;-90
2022/01/02 05:21:30;;;;;;;5.68;2.03;;;11.70;95.50;;;;;;2072328;28;20057;-89
2022/01/02 05:22:30;;;;;;;7.43;2.00;;;11.70;95.60;;;;;;2076162;28;20029;-89
2022/01/02 05:23:31;;;;;;;5.53;1.90;;;11.70;95.60;;;;;;2089541;28;20036;-89
2022/01/02 05:24:31;;;;;;;3.05;1.60;;;11.70;95.60;;;;;;2092454;28;20112;-90
2022/01/02 05:25:32;;;;;;;4.60;1.90;;;11.70;95.60;;;;;;2091948;28;20494;-90
2022/01/02 05:26:33;;;;;;;4.70;1.85;;;11.70;95.60;;;;;;2088786;28;20041;-90
2022/01/02 05:27:33;;;;;;;4.47;1.95;;;11.70;95.60;;;;;;2089641;28;20095;-90
2022/01/02 05:28:34;;;;;;;3.47;1.70;;;11.70;95.60;;;;;;2081134;28;20068;-90
2022/01/02 05:29:35;;;;;;;4.63;2.00;;;11.70;95.60;;;;;;2064695;28;20073;-89